Terminal Aerodrome Forecast
Issued by NWS Tallahassee, FL

Home | Current Version | Previous Version | Text Only | Print | Product List | Glossary On
Versions: 1 2 3 4 5 6 7 8 9 10 11 12 13 14 15 16 17 18 19 20 21 22 23
228
FTUS42 KTAE 240940 AAB
TAFTLH
TAF AMD
KTLH 240940Z 2410/2506 00000KT 5SM BR BKN006
     FM241300 25005KT P6SM BKN015
     FM241500 25006KT P6SM VCSH BKN040
     FM241700 18008KT 6SM -TSRA BKN040CB
     FM242300 20006KT P6SM BKN040=

USA.gov is the U.S. government's official web portal to all federal, state and local government web resources and services.